sensor_id;sensor_type;location;lat;lon;timestamp;temperature;humidity
55135;DHT22;41031;44.750;11.308;2022-12-18T00:01:31;7.30;91.80
55135;DHT22;41031;44.750;11.308;2022-12-18T00:04:02;7.20;91.90
55135;DHT22;41031;44.750;11.308;2022-12-18T00:06:30;7.10;91.80
55135;DHT22;41031;44.750;11.308;2022-12-18T00:08:58;7.10;91.70
55135;DHT22;41031;44.750;11.308;2022-12-18T00:11:28;7.00;91.60
55135;DHT22;41031;44.750;11.308;2022-12-18T00:13:57;7.00;91.40
55135;DHT22;41031;44.750;11.308;2022-12-18T00:16:26;6.90;91.60
55135;DHT22;41031;44.750;11.308;2022-12-18T00:18:55;6.90;91.60
55135;DHT22;41031;44.750;11.308;2022-12-18T00:21:22;6.80;91.70
55135;DHT22;41031;44.750;11.308;2022-12-18T00:23:50;6.80;91.80
55135;DHT22;41031;44.750;11.308;2022-12-18T00:26:20;6.80;91.90
55135;DHT22;41031;44.750;11.308;2022-12-18T00:28:51;6.80;91.90
55135;DHT22;41031;44.750;11.308;2022-12-18T00:31:20;6.80;92.00
55135;DHT22;41031;44.750;11.308;2022-12-18T00:33:48;6.70;92.00
55135;DHT22;41031;44.750;11.308;2022-12-18T00:36:23;6.70;92.00
55135;DHT22;41031;44.750;11.308;2022-12-18T00:38:52;6.70;91.90
55135;DHT22;41031;44.750;11.308;2022-12-18T00:41:20;6.70;91.80
55135;DHT22;41031;44.750;11.308;2022-12-18T00:44:06;6.60;91.80
55135;DHT22;41031;44.750;11.308;2022-12-18T00:46:34;6.60;91.80
55135;DHT22;41031;44.750;11.308;2022-12-18T00:49:01;6.60;91.70
55135;DHT22;41031;44.750;11.308;2022-12-18T00:51:29;6.50;91.70
55135;DHT22;41031;44.750;11.308;2022-12-18T00:53:56;6.40;91.50
55135;DHT22;41031;44.750;11.308;2022-12-18T00:56:23;6.40;91.50
55135;DHT22;41031;44.750;11.308;2022-12-18T00:58:52;6.30;91.50
55135;DHT22;41031;44.750;11.308;2022-12-18T01:01:19;6.30;91.50
55135;DHT22;41031;44.750;11.308;2022-12-18T01:03:46;6.20;91.60
55135;DHT22;41031;44.750;11.308;2022-12-18T01:06:16;6.20;91.60
55135;DHT22;41031;44.750;11.308;2022-12-18T01:08:44;6.20;91.70
55135;DHT22;41031;44.750;11.308;2022-12-18T01:11:17;6.10;91.70
55135;DHT22;41031;44.750;11.308;2022-12-18T01:13:44;6.10;91.80
55135;DHT22;41031;44.750;11.308;2022-12-18T01:16:14;6.10;91.80
55135;DHT22;41031;44.750;11.308;2022-12-18T01:18:41;6.10;91.80
55135;DHT22;41031;44.750;11.308;2022-12-18T01:21:10;6.10;91.80
55135;DHT22;41031;44.750;11.308;2022-12-18T01:23:38;6.10;92.10
55135;DHT22;41031;44.750;11.308;2022-12-18T01:26:11;6.20;91.80
55135;DHT22;41031;44.750;11.308;2022-12-18T01:28:39;6.20;91.70
55135;DHT22;41031;44.750;11.308;2022-12-18T01:31:22;6.20;91.70
55135;DHT22;41031;44.750;11.308;2022-12-18T01:33:50;6.30;91.80
55135;DHT22;41031;44.750;11.308;2022-12-18T01:36:21;6.30;91.70
55135;DHT22;41031;44.750;11.308;2022-12-18T01:38:49;6.30;91.60
55135;DHT22;41031;44.750;11.308;2022-12-18T01:41:20;6.40;91.60
55135;DHT22;41031;44.750;11.308;2022-12-18T01:43:53;6.40;91.50
55135;DHT22;41031;44.750;11.308;2022-12-18T01:46:22;6.40;91.40
55135;DHT22;41031;44.750;11.308;2022-12-18T01:49:00;6.40;91.50
55135;DHT22;41031;44.750;11.308;2022-12-18T01:51:29;6.40;91.50
55135;DHT22;41031;44.750;11.308;2022-12-18T01:53:57;6.40;91.50
55135;DHT22;41031;44.750;11.308;2022-12-18T01:56:24;6.40;91.60
55135;DHT22;41031;44.750;11.308;2022-12-18T01:59:02;6.50;91.70
55135;DHT22;41031;44.750;11.308;2022-12-18T02:01:32;6.40;91.80
55135;DHT22;41031;44.750;11.308;2022-12-18T02:04:24;6.50;91.90
55135;DHT22;41031;44.750;11.308;2022-12-18T02:07:17;6.50;91.70
55135;DHT22;41031;44.750;11.308;2022-12-18T02:09:58;6.50;91.50
55135;DHT22;41031;44.750;11.308;2022-12-18T02:12:53;6.50;91.30
55135;DHT22;41031;44.750;11.308;2022-12-18T02:18:27;6.50;91.10
55135;DHT22;41031;44.750;11.308;2022-12-18T02:26:36;6.40;90.40
55135;DHT22;41031;44.750;11.308;2022-12-18T02:29:15;6.40;90.40
55135;DHT22;41031;44.750;11.308;2022-12-18T02:31:51;6.40;90.30
55135;DHT22;41031;44.750;11.308;2022-12-18T02:34:22;6.30;90.10
55135;DHT22;41031;44.750;11.308;2022-12-18T02:36:51;6.30;90.00
55135;DHT22;41031;44.750;11.308;2022-12-18T02:39:22;6.30;90.10
55135;DHT22;41031;44.750;11.308;2022-12-18T02:41:58;6.30;90.00
55135;DHT22;41031;44.750;11.308;2022-12-18T02:44:26;6.30;89.70
55135;DHT22;41031;44.750;11.308;2022-12-18T02:46:54;6.30;89.90
55135;DHT22;41031;44.750;11.308;2022-12-18T02:49:38;6.20;89.90
55135;DHT22;41031;44.750;11.308;2022-12-18T02:55:28;6.30;90.30
55135;DHT22;41031;44.750;11.308;2022-12-18T02:58:45;6.30;90.50
55135;DHT22;41031;44.750;11.308;2022-12-18T03:01:26;6.30;90.60
55135;DHT22;41031;44.750;11.308;2022-12-18T03:06:56;6.30;90.80
55135;DHT22;41031;44.750;11.308;2022-12-18T03:09:34;6.30;90.90
55135;DHT22;41031;44.750;11.308;2022-12-18T03:12:14;6.30;90.90
55135;DHT22;41031;44.750;11.308;2022-12-18T03:17:23;6.30;90.60
55135;DHT22;41031;44.750;11.308;2022-12-18T03:19:53;6.40;90.50
55135;DHT22;41031;44.750;11.308;2022-12-18T03:22:23;6.30;90.50
55135;DHT22;41031;44.750;11.308;2022-12-18T03:24:54;6.30;90.60
55135;DHT22;41031;44.750;11.308;2022-12-18T03:27:25;6.30;90.60
55135;DHT22;41031;44.750;11.308;2022-12-18T03:30:04;6.30;90.60
55135;DHT22;41031;44.750;11.308;2022-12-18T03:32:47;6.30;90.70
55135;DHT22;41031;44.750;11.308;2022-12-18T03:35:18;6.30;90.50
55135;DHT22;41031;44.750;11.308;2022-12-18T03:37:46;6.30;90.20
55135;DHT22;41031;44.750;11.308;2022-12-18T03:40:14;6.20;90.10
55135;DHT22;41031;44.750;11.308;2022-12-18T03:42:52;6.20;90.00
55135;DHT22;41031;44.750;11.308;2022-12-18T03:45:36;6.10;90.10
55135;DHT22;41031;44.750;11.308;2022-12-18T03:48:16;6.10;90.20
55135;DHT22;41031;44.750;11.308;2022-12-18T03:56:20;6.00;90.80
55135;DHT22;41031;44.750;11.308;2022-12-18T03:58:50;5.90;90.90
55135;DHT22;41031;44.750;11.308;2022-12-18T04:01:25;5.80;91.10
55135;DHT22;41031;44.750;11.308;2022-12-18T04:03:56;5.80;91.30
55135;DHT22;41031;44.750;11.308;2022-12-18T04:06:25;5.70;91.40
55135;DHT22;41031;44.750;11.308;2022-12-18T04:08:52;5.80;91.50
55135;DHT22;41031;44.750;11.308;2022-12-18T04:11:23;5.70;91.60
55135;DHT22;41031;44.750;11.308;2022-12-18T04:13:50;5.70;91.70
55135;DHT22;41031;44.750;11.308;2022-12-18T04:16:23;5.70;91.90
55135;DHT22;41031;44.750;11.308;2022-12-18T04:18:53;5.70;92.00
55135;DHT22;41031;44.750;11.308;2022-12-18T04:21:23;5.70;92.00
55135;DHT22;41031;44.750;11.308;2022-12-18T04:23:51;5.80;92.00
55135;DHT22;41031;44.750;11.308;2022-12-18T04:26:21;5.80;91.90
55135;DHT22;41031;44.750;11.308;2022-12-18T04:29:10;5.80;91.80
55135;DHT22;41031;44.750;11.308;2022-12-18T04:31:38;5.80;91.80
55135;DHT22;41031;44.750;11.308;2022-12-18T04:34:06;5.80;91.80
55135;DHT22;41031;44.750;11.308;2022-12-18T04:36:39;5.80;91.70
55135;DHT22;41031;44.750;11.308;2022-12-18T04:39:06;5.80;91.70
55135;DHT22;41031;44.750;11.308;2022-12-18T04:41:33;5.80;91.80
55135;DHT22;41031;44.750;11.308;2022-12-18T04:44:02;5.70;91.90
55135;DHT22;41031;44.750;11.308;2022-12-18T04:46:29;5.70;92.00
55135;DHT22;41031;44.750;11.308;2022-12-18T04:48:56;5.70;92.10
55135;DHT22;41031;44.750;11.308;2022-12-18T04:51:23;5.80;92.30
55135;DHT22;41031;44.750;11.308;2022-12-18T04:53:53;5.80;92.30
55135;DHT22;41031;44.750;11.308;2022-12-18T04:56:20;5.80;92.40
55135;DHT22;41031;44.750;11.308;2022-12-18T04:58:47;5.80;92.40
55135;DHT22;41031;44.750;11.308;2022-12-18T05:01:16;5.80;92.40
55135;DHT22;41031;44.750;11.308;2022-12-18T05:03:43;5.90;92.50
55135;DHT22;41031;44.750;11.308;2022-12-18T05:06:11;5.80;92.50
55135;DHT22;41031;44.750;11.308;2022-12-18T05:08:38;5.90;92.40
55135;DHT22;41031;44.750;11.308;2022-12-18T05:11:11;5.90;92.40
55135;DHT22;41031;44.750;11.308;2022-12-18T05:13:38;5.90;92.40
55135;DHT22;41031;44.750;11.308;2022-12-18T05:16:06;5.90;92.40
55135;DHT22;41031;44.750;11.308;2022-12-18T05:18:34;5.90;92.40
55135;DHT22;41031;44.750;11.308;2022-12-18T05:21:01;5.90;92.40
55135;DHT22;41031;44.750;11.308;2022-12-18T05:23:29;5.90;92.40
55135;DHT22;41031;44.750;11.308;2022-12-18T05:25:58;5.90;92.40
55135;DHT22;41031;44.750;11.308;2022-12-18T05:28:27;5.90;92.30
55135;DHT22;41031;44.750;11.308;2022-12-18T05:30:57;5.90;92.30
55135;DHT22;41031;44.750;11.308;2022-12-18T05:33:26;5.90;92.30
55135;DHT22;41031;44.750;11.308;2022-12-18T05:35:57;5.80;92.30
55135;DHT22;41031;44.750;11.308;2022-12-18T05:38:25;5.80;92.40
55135;DHT22;41031;44.750;11.308;2022-12-18T05:40:53;5.70;92.70
55135;DHT22;41031;44.750;11.308;2022-12-18T05:43:20;5.80;92.40
55135;DHT22;41031;44.750;11.308;2022-12-18T05:45:51;5.70;92.40
55135;DHT22;41031;44.750;11.308;2022-12-18T05:48:20;5.70;92.50
55135;DHT22;41031;44.750;11.308;2022-12-18T05:50:48;5.60;92.50
55135;DHT22;41031;44.750;11.308;2022-12-18T05:53:17;5.60;92.50
55135;DHT22;41031;44.750;11.308;2022-12-18T05:55:45;5.50;92.30
55135;DHT22;41031;44.750;11.308;2022-12-18T05:58:13;5.50;92.20
55135;DHT22;41031;44.750;11.308;2022-12-18T06:00:45;5.50;92.30
55135;DHT22;41031;44.750;11.308;2022-12-18T06:03:13;5.40;92.30
55135;DHT22;41031;44.750;11.308;2022-12-18T06:05:44;5.40;92.40
55135;DHT22;41031;44.750;11.308;2022-12-18T06:08:12;5.30;92.50
55135;DHT22;41031;44.750;11.308;2022-12-18T06:10:40;5.30;92.50
55135;DHT22;41031;44.750;11.308;2022-12-18T06:13:08;5.30;92.50
55135;DHT22;41031;44.750;11.308;2022-12-18T06:15:38;5.30;92.60
55135;DHT22;41031;44.750;11.308;2022-12-18T06:18:05;5.20;92.60
55135;DHT22;41031;44.750;11.308;2022-12-18T06:20:32;5.10;92.50
55135;DHT22;41031;44.750;11.308;2022-12-18T06:23:00;5.10;92.60
55135;DHT22;41031;44.750;11.308;2022-12-18T06:25:27;5.10;92.60
55135;DHT22;41031;44.750;11.308;2022-12-18T06:27:54;5.00;92.60
55135;DHT22;41031;44.750;11.308;2022-12-18T06:30:21;5.00;92.70
55135;DHT22;41031;44.750;11.308;2022-12-18T06:32:49;5.00;92.80
55135;DHT22;41031;44.750;11.308;2022-12-18T06:35:23;4.90;92.70
55135;DHT22;41031;44.750;11.308;2022-12-18T06:37:50;4.90;92.70
55135;DHT22;41031;44.750;11.308;2022-12-18T06:40:18;4.80;92.70
55135;DHT22;41031;44.750;11.308;2022-12-18T06:42:45;4.80;92.80
55135;DHT22;41031;44.750;11.308;2022-12-18T06:45:15;4.70;92.90
55135;DHT22;41031;44.750;11.308;2022-12-18T06:47:42;4.70;93.10
55135;DHT22;41031;44.750;11.308;2022-12-18T06:50:09;4.70;93.20
55135;DHT22;41031;44.750;11.308;2022-12-18T06:52:37;4.70;93.20
55135;DHT22;41031;44.750;11.308;2022-12-18T06:55:06;4.70;93.30
55135;DHT22;41031;44.750;11.308;2022-12-18T06:57:35;4.70;93.30
55135;DHT22;41031;44.750;11.308;2022-12-18T07:00:03;4.60;93.30
55135;DHT22;41031;44.750;11.308;2022-12-18T07:02:31;4.70;93.30
55135;DHT22;41031;44.750;11.308;2022-12-18T07:04:58;4.60;93.30
55135;DHT22;41031;44.750;11.308;2022-12-18T07:07:25;4.60;93.40
55135;DHT22;41031;44.750;11.308;2022-12-18T07:09:52;4.60;93.40
55135;DHT22;41031;44.750;11.308;2022-12-18T07:12:19;4.60;93.40
55135;DHT22;41031;44.750;11.308;2022-12-18T07:14:46;4.60;93.30
55135;DHT22;41031;44.750;11.308;2022-12-18T07:17:14;4.60;93.30
55135;DHT22;41031;44.750;11.308;2022-12-18T07:19:41;4.50;93.30
55135;DHT22;41031;44.750;11.308;2022-12-18T07:22:08;4.50;93.40
55135;DHT22;41031;44.750;11.308;2022-12-18T07:24:35;4.50;93.40
55135;DHT22;41031;44.750;11.308;2022-12-18T07:27:02;4.50;93.50
55135;DHT22;41031;44.750;11.308;2022-12-18T07:29:29;4.50;93.50
55135;DHT22;41031;44.750;11.308;2022-12-18T07:31:56;4.50;93.60
55135;DHT22;41031;44.750;11.308;2022-12-18T07:34:23;4.60;93.60
55135;DHT22;41031;44.750;11.308;2022-12-18T07:36:50;4.60;93.60
55135;DHT22;41031;44.750;11.308;2022-12-18T07:39:17;4.60;93.60
55135;DHT22;41031;44.750;11.308;2022-12-18T07:41:44;4.60;93.60
55135;DHT22;41031;44.750;11.308;2022-12-18T07:44:32;4.60;93.60
55135;DHT22;41031;44.750;11.308;2022-12-18T07:46:59;4.60;93.60
55135;DHT22;41031;44.750;11.308;2022-12-18T07:49:26;4.50;93.60
55135;DHT22;41031;44.750;11.308;2022-12-18T07:51:55;4.60;93.70
55135;DHT22;41031;44.750;11.308;2022-12-18T07:54:23;4.60;93.80
55135;DHT22;41031;44.750;11.308;2022-12-18T07:56:51;4.70;93.90
55135;DHT22;41031;44.750;11.308;2022-12-18T07:59:19;4.70;93.90
55135;DHT22;41031;44.750;11.308;2022-12-18T08:01:46;4.80;93.90
55135;DHT22;41031;44.750;11.308;2022-12-18T08:04:13;5.00;93.90
55135;DHT22;41031;44.750;11.308;2022-12-18T08:06:40;5.10;93.70
55135;DHT22;41031;44.750;11.308;2022-12-18T08:09:13;5.10;93.50
55135;DHT22;41031;44.750;11.308;2022-12-18T08:11:40;5.20;93.30
55135;DHT22;41031;44.750;11.308;2022-12-18T08:14:07;5.30;93.20
55135;DHT22;41031;44.750;11.308;2022-12-18T08:16:34;5.30;93.10
55135;DHT22;41031;44.750;11.308;2022-12-18T08:19:02;5.40;92.90
55135;DHT22;41031;44.750;11.308;2022-12-18T08:21:30;5.50;92.70
55135;DHT22;41031;44.750;11.308;2022-12-18T08:23:59;5.50;92.50
55135;DHT22;41031;44.750;11.308;2022-12-18T08:26:29;5.60;92.30
55135;DHT22;41031;44.750;11.308;2022-12-18T08:28:57;5.70;92.20
55135;DHT22;41031;44.750;11.308;2022-12-18T08:31:26;5.80;92.00
55135;DHT22;41031;44.750;11.308;2022-12-18T08:33:54;5.90;91.90
55135;DHT22;41031;44.750;11.308;2022-12-18T08:36:23;5.90;91.80
55135;DHT22;41031;44.750;11.308;2022-12-18T08:38:52;6.00;91.70
55135;DHT22;41031;44.750;11.308;2022-12-18T08:41:20;6.10;91.40
55135;DHT22;41031;44.750;11.308;2022-12-18T08:43:47;6.10;91.10
55135;DHT22;41031;44.750;11.308;2022-12-18T08:46:49;6.10;90.70
55135;DHT22;41031;44.750;11.308;2022-12-18T08:49:16;6.10;90.40
55135;DHT22;41031;44.750;11.308;2022-12-18T08:51:43;6.10;90.20
55135;DHT22;41031;44.750;11.308;2022-12-18T08:54:11;6.10;90.20
55135;DHT22;41031;44.750;11.308;2022-12-18T08:56:39;6.20;90.20
55135;DHT22;41031;44.750;11.308;2022-12-18T08:59:06;6.30;90.30
55135;DHT22;41031;44.750;11.308;2022-12-18T09:01:33;6.50;90.40
55135;DHT22;41031;44.750;11.308;2022-12-18T09:04:01;6.60;90.20
55135;DHT22;41031;44.750;11.308;2022-12-18T09:06:28;6.70;89.80
55135;DHT22;41031;44.750;11.308;2022-12-18T09:08:57;6.80;89.00
55135;DHT22;41031;44.750;11.308;2022-12-18T09:11:26;7.00;88.60
55135;DHT22;41031;44.750;11.308;2022-12-18T09:13:54;7.00;88.10
55135;DHT22;41031;44.750;11.308;2022-12-18T09:16:22;7.10;87.50
55135;DHT22;41031;44.750;11.308;2022-12-18T09:18:58;7.20;87.30
55135;DHT22;41031;44.750;11.308;2022-12-18T09:21:30;7.20;87.20
55135;DHT22;41031;44.750;11.308;2022-12-18T09:24:03;7.30;87.20
55135;DHT22;41031;44.750;11.308;2022-12-18T09:26:35;7.40;86.70
55135;DHT22;41031;44.750;11.308;2022-12-18T09:29:03;7.50;86.80
55135;DHT22;41031;44.750;11.308;2022-12-18T09:31:30;7.60;86.30
55135;DHT22;41031;44.750;11.308;2022-12-18T09:33:57;7.60;85.30
55135;DHT22;41031;44.750;11.308;2022-12-18T09:36:24;7.70;85.50
55135;DHT22;41031;44.750;11.308;2022-12-18T09:38:51;7.70;84.80
55135;DHT22;41031;44.750;11.308;2022-12-18T09:41:36;7.80;84.30
55135;DHT22;41031;44.750;11.308;2022-12-18T09:49:28;7.90;84.00
55135;DHT22;41031;44.750;11.308;2022-12-18T09:52:45;8.00;83.70
55135;DHT22;41031;44.750;11.308;2022-12-18T09:57:53;8.10;82.00
55135;DHT22;41031;44.750;11.308;2022-12-18T10:00:23;8.20;81.70
55135;DHT22;41031;44.750;11.308;2022-12-18T10:03:01;8.30;80.80
55135;DHT22;41031;44.750;11.308;2022-12-18T10:10:52;8.40;76.20
55135;DHT22;41031;44.750;11.308;2022-12-18T10:16:35;8.50;76.30
55135;DHT22;41031;44.750;11.308;2022-12-18T10:19:40;8.50;75.70
55135;DHT22;41031;44.750;11.308;2022-12-18T10:28:00;8.70;73.20
55135;DHT22;41031;44.750;11.308;2022-12-18T10:30:34;8.70;73.20
55135;DHT22;41031;44.750;11.308;2022-12-18T10:33:02;8.70;72.90
55135;DHT22;41031;44.750;11.308;2022-12-18T10:35:29;8.70;73.50
55135;DHT22;41031;44.750;11.308;2022-12-18T10:38:21;8.70;73.80
55135;DHT22;41031;44.750;11.308;2022-12-18T10:41:00;8.80;72.00
55135;DHT22;41031;44.750;11.308;2022-12-18T10:43:30;8.80;72.80
55135;DHT22;41031;44.750;11.308;2022-12-18T10:51:08;8.90;71.70
55135;DHT22;41031;44.750;11.308;2022-12-18T10:53:40;9.00;71.90
55135;DHT22;41031;44.750;11.308;2022-12-18T10:56:08;9.00;72.70
55135;DHT22;41031;44.750;11.308;2022-12-18T10:58:37;9.10;73.10
55135;DHT22;41031;44.750;11.308;2022-12-18T11:03:43;9.10;73.00
55135;DHT22;41031;44.750;11.308;2022-12-18T11:06:19;9.20;73.20
55135;DHT22;41031;44.750;11.308;2022-12-18T11:09:05;9.20;72.40
55135;DHT22;41031;44.750;11.308;2022-12-18T11:11:39;9.30;72.60
55135;DHT22;41031;44.750;11.308;2022-12-18T11:14:14;9.40;72.50
55135;DHT22;41031;44.750;11.308;2022-12-18T11:16:46;9.50;71.80
55135;DHT22;41031;44.750;11.308;2022-12-18T11:19:38;9.50;71.70
55135;DHT22;41031;44.750;11.308;2022-12-18T11:22:23;9.60;72.60
55135;DHT22;41031;44.750;11.308;2022-12-18T11:24:59;9.70;70.90
55135;DHT22;41031;44.750;11.308;2022-12-18T11:27:53;9.80;69.80
55135;DHT22;41031;44.750;11.308;2022-12-18T11:33:07;9.90;71.00
55135;DHT22;41031;44.750;11.308;2022-12-18T11:35:54;10.00;71.40
55135;DHT22;41031;44.750;11.308;2022-12-18T11:38:24;10.10;70.50
55135;DHT22;41031;44.750;11.308;2022-12-18T11:41:06;10.20;68.90
55135;DHT22;41031;44.750;11.308;2022-12-18T11:43:52;10.20;68.90
55135;DHT22;41031;44.750;11.308;2022-12-18T11:46:32;10.30;69.80
55135;DHT22;41031;44.750;11.308;2022-12-18T11:49:12;10.40;69.90
55135;DHT22;41031;44.750;11.308;2022-12-18T11:51:50;10.40;69.70
55135;DHT22;41031;44.750;11.308;2022-12-18T11:54:18;10.50;69.70
55135;DHT22;41031;44.750;11.308;2022-12-18T12:07:54;10.80;68.90
55135;DHT22;41031;44.750;11.308;2022-12-18T12:38:18;11.40;68.20
55135;DHT22;41031;44.750;11.308;2022-12-18T12:40:53;11.30;67.80
55135;DHT22;41031;44.750;11.308;2022-12-18T12:43:33;11.30;67.40
55135;DHT22;41031;44.750;11.308;2022-12-18T12:46:07;11.30;67.90
55135;DHT22;41031;44.750;11.308;2022-12-18T12:51:24;11.20;67.50
55135;DHT22;41031;44.750;11.308;2022-12-18T12:53:53;11.20;68.40
55135;DHT22;41031;44.750;11.308;2022-12-18T12:56:21;11.10;68.00
55135;DHT22;41031;44.750;11.308;2022-12-18T12:59:18;11.10;68.80
55135;DHT22;41031;44.750;11.308;2022-12-18T13:04:36;11.10;68.90
55135;DHT22;41031;44.750;11.308;2022-12-18T13:07:17;11.00;68.70
55135;DHT22;41031;44.750;11.308;2022-12-18T13:10:11;11.00;68.70
55135;DHT22;41031;44.750;11.308;2022-12-18T13:12:55;10.90;68.60
55135;DHT22;41031;44.750;11.308;2022-12-18T13:18:11;10.90;68.40
55135;DHT22;41031;44.750;11.308;2022-12-18T13:20:41;10.80;68.30
55135;DHT22;41031;44.750;11.308;2022-12-18T13:23:28;10.80;68.40
55135;DHT22;41031;44.750;11.308;2022-12-18T13:32:01;10.60;68.80
55135;DHT22;41031;44.750;11.308;2022-12-18T13:36:57;10.50;69.30
55135;DHT22;41031;44.750;11.308;2022-12-18T13:39:42;10.60;69.70
55135;DHT22;41031;44.750;11.308;2022-12-18T13:44:58;10.50;69.50
55135;DHT22;41031;44.750;11.308;2022-12-18T13:49:56;10.50;69.30
55135;DHT22;41031;44.750;11.308;2022-12-18T13:52:43;10.40;69.50
55135;DHT22;41031;44.750;11.308;2022-12-18T13:55:18;10.40;69.70
55135;DHT22;41031;44.750;11.308;2022-12-18T13:57:45;10.30;69.80
55135;DHT22;41031;44.750;11.308;2022-12-18T14:02:46;10.30;70.20
55135;DHT22;41031;44.750;11.308;2022-12-18T14:05:34;10.30;69.90
55135;DHT22;41031;44.750;11.308;2022-12-18T14:08:14;10.20;69.90
55135;DHT22;41031;44.750;11.308;2022-12-18T14:10:48;10.20;70.00
55135;DHT22;41031;44.750;11.308;2022-12-18T14:13:32;10.20;70.00
55135;DHT22;41031;44.750;11.308;2022-12-18T14:16:02;10.20;70.20
55135;DHT22;41031;44.750;11.308;2022-12-18T14:18:46;10.10;70.10
55135;DHT22;41031;44.750;11.308;2022-12-18T14:21:26;10.10;70.40
55135;DHT22;41031;44.750;11.308;2022-12-18T14:26:38;10.00;70.70
55135;DHT22;41031;44.750;11.308;2022-12-18T14:32:12;10.00;70.30
55135;DHT22;41031;44.750;11.308;2022-12-18T14:34:46;9.90;69.90
55135;DHT22;41031;44.750;11.308;2022-12-18T14:37:16;9.90;70.20
55135;DHT22;41031;44.750;11.308;2022-12-18T14:39:54;9.90;70.70
55135;DHT22;41031;44.750;11.308;2022-12-18T14:42:21;9.80;71.10
55135;DHT22;41031;44.750;11.308;2022-12-18T14:44:48;9.80;71.40
55135;DHT22;41031;44.750;11.308;2022-12-18T14:47:35;9.70;71.60
55135;DHT22;41031;44.750;11.308;2022-12-18T14:50:03;9.70;71.70
55135;DHT22;41031;44.750;11.308;2022-12-18T14:52:31;9.60;71.60
55135;DHT22;41031;44.750;11.308;2022-12-18T14:54:58;9.60;71.90
55135;DHT22;41031;44.750;11.308;2022-12-18T14:57:32;9.50;72.10
55135;DHT22;41031;44.750;11.308;2022-12-18T15:00:17;9.50;72.60
55135;DHT22;41031;44.750;11.308;2022-12-18T15:02:55;9.40;73.00
55135;DHT22;41031;44.750;11.308;2022-12-18T15:05:30;9.40;73.10
55135;DHT22;41031;44.750;11.308;2022-12-18T15:08:01;9.30;73.30
55135;DHT22;41031;44.750;11.308;2022-12-18T15:10:31;9.30;73.60
55135;DHT22;41031;44.750;11.308;2022-12-18T15:20:57;9.10;74.20
55135;DHT22;41031;44.750;11.308;2022-12-18T15:23:49;9.10;74.30
55135;DHT22;41031;44.750;11.308;2022-12-18T15:26:20;9.00;74.20
55135;DHT22;41031;44.750;11.308;2022-12-18T15:28:51;9.00;74.20
55135;DHT22;41031;44.750;11.308;2022-12-18T15:31:33;9.00;74.20
55135;DHT22;41031;44.750;11.308;2022-12-18T15:34:39;8.90;74.20
55135;DHT22;41031;44.750;11.308;2022-12-18T15:37:00;8.90;74.20
55135;DHT22;41031;44.750;11.308;2022-12-18T15:39:27;8.80;74.40
55135;DHT22;41031;44.750;11.308;2022-12-18T15:41:54;8.80;74.70
55135;DHT22;41031;44.750;11.308;2022-12-18T15:44:44;8.70;75.00
55135;DHT22;41031;44.750;11.308;2022-12-18T15:47:12;8.60;75.30
55135;DHT22;41031;44.750;11.308;2022-12-18T15:49:39;8.50;75.50
55135;DHT22;41031;44.750;11.308;2022-12-18T15:52:10;8.50;75.80
55135;DHT22;41031;44.750;11.308;2022-12-18T15:54:38;8.40;76.20
55135;DHT22;41031;44.750;11.308;2022-12-18T15:57:24;8.30;76.40
55135;DHT22;41031;44.750;11.308;2022-12-18T15:59:54;8.20;76.50
55135;DHT22;41031;44.750;11.308;2022-12-18T16:02:23;8.20;76.80
55135;DHT22;41031;44.750;11.308;2022-12-18T16:04:52;8.10;76.90
55135;DHT22;41031;44.750;11.308;2022-12-18T16:07:19;8.00;77.30
55135;DHT22;41031;44.750;11.308;2022-12-18T16:09:51;7.90;77.80
55135;DHT22;41031;44.750;11.308;2022-12-18T16:12:21;7.80;78.30
55135;DHT22;41031;44.750;11.308;2022-12-18T16:14:48;7.80;78.70
55135;DHT22;41031;44.750;11.308;2022-12-18T16:17:16;7.70;78.90
55135;DHT22;41031;44.750;11.308;2022-12-18T16:19:43;7.70;79.30
55135;DHT22;41031;44.750;11.308;2022-12-18T16:22:28;7.60;79.60
55135;DHT22;41031;44.750;11.308;2022-12-18T16:24:56;7.50;80.10
55135;DHT22;41031;44.750;11.308;2022-12-18T16:27:24;7.40;80.20
55135;DHT22;41031;44.750;11.308;2022-12-18T16:29:51;7.40;80.60
55135;DHT22;41031;44.750;11.308;2022-12-18T16:32:20;7.30;80.70
55135;DHT22;41031;44.750;11.308;2022-12-18T16:34:49;7.30;81.10
55135;DHT22;41031;44.750;11.308;2022-12-18T16:37:16;7.20;81.50
55135;DHT22;41031;44.750;11.308;2022-12-18T16:39:44;7.20;81.80
55135;DHT22;41031;44.750;11.308;2022-12-18T16:42:14;7.10;82.10
55135;DHT22;41031;44.750;11.308;2022-12-18T16:44:43;7.10;82.40
55135;DHT22;41031;44.750;11.308;2022-12-18T16:47:10;7.10;82.80
55135;DHT22;41031;44.750;11.308;2022-12-18T16:49:41;7.10;83.10
55135;DHT22;41031;44.750;11.308;2022-12-18T16:52:08;7.00;83.30
55135;DHT22;41031;44.750;11.308;2022-12-18T16:54:35;7.00;83.60
55135;DHT22;41031;44.750;11.308;2022-12-18T16:57:03;7.00;83.80
55135;DHT22;41031;44.750;11.308;2022-12-18T16:59:31;6.90;84.00
55135;DHT22;41031;44.750;11.308;2022-12-18T17:01:58;6.90;84.20
55135;DHT22;41031;44.750;11.308;2022-12-18T17:04:25;6.80;85.10
55135;DHT22;41031;44.750;11.308;2022-12-18T17:06:52;6.80;84.80
55135;DHT22;41031;44.750;11.308;2022-12-18T17:09:20;6.70;85.00
55135;DHT22;41031;44.750;11.308;2022-12-18T17:11:51;6.70;85.40
55135;DHT22;41031;44.750;11.308;2022-12-18T17:14:20;6.60;85.80
55135;DHT22;41031;44.750;11.308;2022-12-18T17:16:48;6.60;86.20
55135;DHT22;41031;44.750;11.308;2022-12-18T17:19:35;6.50;86.40
55135;DHT22;41031;44.750;11.308;2022-12-18T17:22:02;6.50;86.60
55135;DHT22;41031;44.750;11.308;2022-12-18T17:24:30;6.50;86.90
55135;DHT22;41031;44.750;11.308;2022-12-18T17:27:01;6.40;87.00
55135;DHT22;41031;44.750;11.308;2022-12-18T17:29:28;6.30;87.30
55135;DHT22;41031;44.750;11.308;2022-12-18T17:31:55;6.30;87.60
55135;DHT22;41031;44.750;11.308;2022-12-18T17:34:26;6.30;87.90
55135;DHT22;41031;44.750;11.308;2022-12-18T17:36:53;6.20;88.10
55135;DHT22;41031;44.750;11.308;2022-12-18T17:39:20;6.20;88.30
55135;DHT22;41031;44.750;11.308;2022-12-18T17:41:48;6.20;88.50
55135;DHT22;41031;44.750;11.308;2022-12-18T17:44:16;6.10;88.40
55135;DHT22;41031;44.750;11.308;2022-12-18T17:46:43;6.10;88.40
55135;DHT22;41031;44.750;11.308;2022-12-18T17:49:11;6.00;88.70
55135;DHT22;41031;44.750;11.308;2022-12-18T17:51:38;6.00;89.00
55135;DHT22;41031;44.750;11.308;2022-12-18T17:54:05;5.90;89.20
55135;DHT22;41031;44.750;11.308;2022-12-18T17:56:32;5.90;89.50
55135;DHT22;41031;44.750;11.308;2022-12-18T17:59:00;5.90;89.90
55135;DHT22;41031;44.750;11.308;2022-12-18T18:01:27;5.90;90.00
55135;DHT22;41031;44.750;11.308;2022-12-18T18:03:54;5.80;90.00
55135;DHT22;41031;44.750;11.308;2022-12-18T18:06:22;5.80;90.20
55135;DHT22;41031;44.750;11.308;2022-12-18T18:08:50;5.80;90.30
55135;DHT22;41031;44.750;11.308;2022-12-18T18:11:19;5.80;90.40